sensor_id;sensor_type;location;lat;lon;timestamp;P1;durP1;ratioP1;P2;durP2;ratioP2
11604;SDS011;5858;43.076;25.626;2023-04-01T00:02:12;26.07;;;12.80;;
11604;SDS011;5858;43.076;25.626;2023-04-01T00:04:39;30.47;;;13.00;;
11604;SDS011;5858;43.076;25.626;2023-04-01T00:07:07;31.33;;;14.70;;
11604;SDS011;5858;43.076;25.626;2023-04-01T00:09:35;26.50;;;13.40;;
11604;SDS011;5858;43.076;25.626;2023-04-01T00:12:03;23.80;;;12.00;;
11604;SDS011;5858;43.076;25.626;2023-04-01T00:14:30;23.03;;;12.13;;
11604;SDS011;5858;43.076;25.626;2023-04-01T00:16:59;19.23;;;10.40;;
11604;SDS011;5858;43.076;25.626;2023-04-01T00:19:26;14.90;;;8.23;;
11604;SDS011;5858;43.076;25.626;2023-04-01T00:21:54;13.70;;;8.83;;
11604;SDS011;5858;43.076;25.626;2023-04-01T00:24:23;13.97;;;8.43;;
11604;SDS011;5858;43.076;25.626;2023-04-01T00:26:50;17.97;;;9.53;;
11604;SDS011;5858;43.076;25.626;2023-04-01T00:29:17;15.33;;;9.60;;
11604;SDS011;5858;43.076;25.626;2023-04-01T00:31:45;17.53;;;10.67;;
11604;SDS011;5858;43.076;25.626;2023-04-01T00:34:13;16.40;;;10.07;;
11604;SDS011;5858;43.076;25.626;2023-04-01T00:36:40;20.60;;;10.37;;
11604;SDS011;5858;43.076;25.626;2023-04-01T00:39:07;17.40;;;10.63;;
11604;SDS011;5858;43.076;25.626;2023-04-01T00:41:36;18.00;;;9.93;;
11604;SDS011;5858;43.076;25.626;2023-04-01T00:46:49;20.93;;;10.43;;
11604;SDS011;5858;43.076;25.626;2023-04-01T00:49:17;16.57;;;9.80;;
11604;SDS011;5858;43.076;25.626;2023-04-01T00:51:50;13.67;;;8.00;;
11604;SDS011;5858;43.076;25.626;2023-04-01T00:54:20;15.20;;;7.90;;
11604;SDS011;5858;43.076;25.626;2023-04-01T00:56:53;15.10;;;9.63;;
11604;SDS011;5858;43.076;25.626;2023-04-01T00:59:23;18.87;;;9.63;;
11604;SDS011;5858;43.076;25.626;2023-04-01T01:01:53;11.47;;;7.97;;
11604;SDS011;5858;43.076;25.626;2023-04-01T01:04:21;8.43;;;5.67;;
11604;SDS011;5858;43.076;25.626;2023-04-01T01:06:50;5.40;;;3.47;;
11604;SDS011;5858;43.076;25.626;2023-04-01T01:09:25;4.40;;;3.43;;
11604;SDS011;5858;43.076;25.626;2023-04-01T01:12:04;4.77;;;3.43;;
11604;SDS011;5858;43.076;25.626;2023-04-01T01:14:45;8.40;;;3.90;;
11604;SDS011;5858;43.076;25.626;2023-04-01T01:17:21;6.33;;;3.80;;
11604;SDS011;5858;43.076;25.626;2023-04-01T01:23:15;5.93;;;3.00;;
11604;SDS011;5858;43.076;25.626;2023-04-01T01:26:04;7.17;;;3.50;;
11604;SDS011;5858;43.076;25.626;2023-04-01T01:28:44;5.77;;;3.07;;
11604;SDS011;5858;43.076;25.626;2023-04-01T01:31:24;5.03;;;3.33;;
11604;SDS011;5858;43.076;25.626;2023-04-01T01:33:59;5.83;;;3.17;;
11604;SDS011;5858;43.076;25.626;2023-04-01T01:36:42;4.87;;;3.47;;
11604;SDS011;5858;43.076;25.626;2023-04-01T01:39:11;6.27;;;3.63;;
11604;SDS011;5858;43.076;25.626;2023-04-01T01:41:41;9.63;;;4.10;;
11604;SDS011;5858;43.076;25.626;2023-04-01T01:44:12;7.20;;;3.90;;
11604;SDS011;5858;43.076;25.626;2023-04-01T01:46:42;5.03;;;3.67;;
11604;SDS011;5858;43.076;25.626;2023-04-01T01:49:11;4.60;;;2.90;;
11604;SDS011;5858;43.076;25.626;2023-04-01T01:51:44;10.80;;;4.03;;
11604;SDS011;5858;43.076;25.626;2023-04-01T01:54:13;4.23;;;2.97;;
11604;SDS011;5858;43.076;25.626;2023-04-01T01:56:40;10.23;;;3.70;;
11604;SDS011;5858;43.076;25.626;2023-04-01T01:59:11;12.90;;;6.20;;
11604;SDS011;5858;43.076;25.626;2023-04-01T02:01:41;16.73;;;7.37;;
11604;SDS011;5858;43.076;25.626;2023-04-01T02:04:12;7.73;;;5.27;;
11604;SDS011;5858;43.076;25.626;2023-04-01T02:06:42;7.67;;;4.10;;
11604;SDS011;5858;43.076;25.626;2023-04-01T02:09:14;5.37;;;3.50;;
11604;SDS011;5858;43.076;25.626;2023-04-01T02:11:43;8.80;;;5.53;;
11604;SDS011;5858;43.076;25.626;2023-04-01T02:14:15;9.40;;;4.57;;
11604;SDS011;5858;43.076;25.626;2023-04-01T02:16:45;8.30;;;4.13;;
11604;SDS011;5858;43.076;25.626;2023-04-01T02:19:18;5.20;;;3.07;;
11604;SDS011;5858;43.076;25.626;2023-04-01T02:21:49;6.30;;;3.63;;
11604;SDS011;5858;43.076;25.626;2023-04-01T02:24:19;7.43;;;3.40;;
11604;SDS011;5858;43.076;25.626;2023-04-01T02:26:49;7.03;;;4.03;;
11604;SDS011;5858;43.076;25.626;2023-04-01T02:29:18;6.53;;;3.20;;
11604;SDS011;5858;43.076;25.626;2023-04-01T02:31:47;3.80;;;3.10;;
11604;SDS011;5858;43.076;25.626;2023-04-01T02:34:15;4.57;;;3.10;;
11604;SDS011;5858;43.076;25.626;2023-04-01T02:36:42;4.27;;;2.83;;
11604;SDS011;5858;43.076;25.626;2023-04-01T02:39:11;7.80;;;4.03;;
11604;SDS011;5858;43.076;25.626;2023-04-01T02:41:40;7.37;;;3.60;;
11604;SDS011;5858;43.076;25.626;2023-04-01T02:44:08;5.00;;;3.20;;
11604;SDS011;5858;43.076;25.626;2023-04-01T02:46:36;7.57;;;2.93;;
11604;SDS011;5858;43.076;25.626;2023-04-01T02:49:03;5.90;;;3.40;;
11604;SDS011;5858;43.076;25.626;2023-04-01T02:51:31;4.70;;;3.33;;
11604;SDS011;5858;43.076;25.626;2023-04-01T02:53:58;7.80;;;3.67;;
11604;SDS011;5858;43.076;25.626;2023-04-01T02:56:27;5.87;;;3.30;;
11604;SDS011;5858;43.076;25.626;2023-04-01T02:58:54;6.20;;;3.17;;
11604;SDS011;5858;43.076;25.626;2023-04-01T03:01:21;5.20;;;2.73;;
11604;SDS011;5858;43.076;25.626;2023-04-01T03:03:51;5.47;;;3.23;;
11604;SDS011;5858;43.076;25.626;2023-04-01T03:06:18;4.57;;;2.90;;
11604;SDS011;5858;43.076;25.626;2023-04-01T03:08:45;5.27;;;3.20;;
11604;SDS011;5858;43.076;25.626;2023-04-01T03:11:13;5.17;;;3.10;;
11604;SDS011;5858;43.076;25.626;2023-04-01T03:13:42;8.10;;;2.90;;
11604;SDS011;5858;43.076;25.626;2023-04-01T03:16:09;6.33;;;2.77;;
11604;SDS011;5858;43.076;25.626;2023-04-01T03:18:36;5.23;;;3.27;;
11604;SDS011;5858;43.076;25.626;2023-04-01T03:21:12;4.30;;;2.80;;
11604;SDS011;5858;43.076;25.626;2023-04-01T03:23:40;7.43;;;2.97;;
11604;SDS011;5858;43.076;25.626;2023-04-01T03:26:07;5.93;;;2.70;;
11604;SDS011;5858;43.076;25.626;2023-04-01T03:28:35;5.87;;;2.80;;
11604;SDS011;5858;43.076;25.626;2023-04-01T03:31:03;6.43;;;2.80;;
11604;SDS011;5858;43.076;25.626;2023-04-01T03:33:33;3.73;;;2.63;;
11604;SDS011;5858;43.076;25.626;2023-04-01T03:36:00;8.50;;;3.57;;
11604;SDS011;5858;43.076;25.626;2023-04-01T03:38:28;4.37;;;2.47;;
11604;SDS011;5858;43.076;25.626;2023-04-01T03:40:56;7.93;;;2.80;;
11604;SDS011;5858;43.076;25.626;2023-04-01T03:43:23;6.93;;;3.40;;
11604;SDS011;5858;43.076;25.626;2023-04-01T03:45:50;3.57;;;2.67;;
11604;SDS011;5858;43.076;25.626;2023-04-01T03:48:19;2.87;;;2.57;;
11604;SDS011;5858;43.076;25.626;2023-04-01T03:50:46;5.33;;;2.60;;
11604;SDS011;5858;43.076;25.626;2023-04-01T03:53:13;3.80;;;2.80;;
11604;SDS011;5858;43.076;25.626;2023-04-01T03:55:40;6.57;;;3.13;;
11604;SDS011;5858;43.076;25.626;2023-04-01T03:58:08;5.53;;;2.90;;
11604;SDS011;5858;43.076;25.626;2023-04-01T04:00:35;4.93;;;2.70;;
11604;SDS011;5858;43.076;25.626;2023-04-01T04:03:02;7.90;;;3.10;;
11604;SDS011;5858;43.076;25.626;2023-04-01T04:05:31;5.27;;;3.10;;
11604;SDS011;5858;43.076;25.626;2023-04-01T04:07:58;4.20;;;2.57;;
11604;SDS011;5858;43.076;25.626;2023-04-01T04:10:26;4.70;;;2.83;;
11604;SDS011;5858;43.076;25.626;2023-04-01T04:12:54;6.83;;;2.60;;
11604;SDS011;5858;43.076;25.626;2023-04-01T04:15:21;6.80;;;2.67;;
11604;SDS011;5858;43.076;25.626;2023-04-01T04:17:49;7.00;;;2.97;;
11604;SDS011;5858;43.076;25.626;2023-04-01T04:20:16;4.30;;;2.50;;
11604;SDS011;5858;43.076;25.626;2023-04-01T04:22:45;4.03;;;2.87;;
11604;SDS011;5858;43.076;25.626;2023-04-01T04:25:12;6.43;;;3.07;;
11604;SDS011;5858;43.076;25.626;2023-04-01T04:27:39;2.93;;;2.63;;
11604;SDS011;5858;43.076;25.626;2023-04-01T04:30:06;5.53;;;3.30;;
11604;SDS011;5858;43.076;25.626;2023-04-01T04:32:34;3.03;;;2.67;;
11604;SDS011;5858;43.076;25.626;2023-04-01T04:35:02;7.60;;;2.90;;
11604;SDS011;5858;43.076;25.626;2023-04-01T04:37:32;6.20;;;2.50;;
11604;SDS011;5858;43.076;25.626;2023-04-01T04:40:01;5.50;;;2.77;;
11604;SDS011;5858;43.076;25.626;2023-04-01T04:42:28;6.37;;;2.60;;
11604;SDS011;5858;43.076;25.626;2023-04-01T04:44:56;4.47;;;3.07;;
11604;SDS011;5858;43.076;25.626;2023-04-01T04:47:24;4.63;;;2.93;;
11604;SDS011;5858;43.076;25.626;2023-04-01T04:49:51;8.73;;;3.23;;
11604;SDS011;5858;43.076;25.626;2023-04-01T04:52:18;3.20;;;2.10;;
11604;SDS011;5858;43.076;25.626;2023-04-01T04:54:46;6.63;;;2.17;;
11604;SDS011;5858;43.076;25.626;2023-04-01T04:57:14;3.13;;;2.47;;
11604;SDS011;5858;43.076;25.626;2023-04-01T04:59:41;9.43;;;3.50;;
11604;SDS011;5858;43.076;25.626;2023-04-01T05:02:09;5.20;;;3.57;;
11604;SDS011;5858;43.076;25.626;2023-04-01T05:04:36;6.17;;;3.10;;
11604;SDS011;5858;43.076;25.626;2023-04-01T05:07:03;4.77;;;2.77;;
11604;SDS011;5858;43.076;25.626;2023-04-01T05:09:30;7.73;;;3.10;;
11604;SDS011;5858;43.076;25.626;2023-04-01T05:11:58;9.57;;;4.90;;
11604;SDS011;5858;43.076;25.626;2023-04-01T05:14:26;9.43;;;4.40;;
11604;SDS011;5858;43.076;25.626;2023-04-01T05:16:53;11.03;;;5.23;;
11604;SDS011;5858;43.076;25.626;2023-04-01T05:19:20;10.10;;;4.27;;
11604;SDS011;5858;43.076;25.626;2023-04-01T05:21:47;7.93;;;3.97;;
11604;SDS011;5858;43.076;25.626;2023-04-01T05:24:15;9.53;;;4.43;;
11604;SDS011;5858;43.076;25.626;2023-04-01T05:26:42;11.57;;;5.60;;
11604;SDS011;5858;43.076;25.626;2023-04-01T05:29:09;13.57;;;5.60;;
11604;SDS011;5858;43.076;25.626;2023-04-01T05:31:37;7.20;;;3.33;;
11604;SDS011;5858;43.076;25.626;2023-04-01T05:34:04;11.10;;;3.83;;
11604;SDS011;5858;43.076;25.626;2023-04-01T05:36:31;10.80;;;4.27;;
11604;SDS011;5858;43.076;25.626;2023-04-01T05:38:59;8.90;;;4.00;;
11604;SDS011;5858;43.076;25.626;2023-04-01T05:41:26;13.03;;;4.50;;
11604;SDS011;5858;43.076;25.626;2023-04-01T05:43:53;5.33;;;3.10;;
11604;SDS011;5858;43.076;25.626;2023-04-01T05:46:20;8.03;;;3.67;;
11604;SDS011;5858;43.076;25.626;2023-04-01T05:48:49;7.93;;;3.57;;
11604;SDS011;5858;43.076;25.626;2023-04-01T05:51:16;4.30;;;3.07;;
11604;SDS011;5858;43.076;25.626;2023-04-01T05:53:43;5.73;;;3.03;;
11604;SDS011;5858;43.076;25.626;2023-04-01T05:56:10;12.00;;;3.67;;
11604;SDS011;5858;43.076;25.626;2023-04-01T05:58:37;6.47;;;3.63;;
11604;SDS011;5858;43.076;25.626;2023-04-01T06:01:06;5.27;;;3.27;;
11604;SDS011;5858;43.076;25.626;2023-04-01T06:03:34;34.50;;;25.27;;
11604;SDS011;5858;43.076;25.626;2023-04-01T06:06:03;11.00;;;5.83;;
11604;SDS011;5858;43.076;25.626;2023-04-01T06:08:31;8.37;;;5.43;;
11604;SDS011;5858;43.076;25.626;2023-04-01T06:11:01;8.50;;;4.30;;
11604;SDS011;5858;43.076;25.626;2023-04-01T06:13:47;11.27;;;5.13;;
11604;SDS011;5858;43.076;25.626;2023-04-01T06:16:43;7.03;;;5.27;;
11604;SDS011;5858;43.076;25.626;2023-04-01T06:19:24;13.30;;;8.63;;
11604;SDS011;5858;43.076;25.626;2023-04-01T06:22:08;13.93;;;5.83;;
11604;SDS011;5858;43.076;25.626;2023-04-01T06:25:01;16.03;;;6.37;;
11604;SDS011;5858;43.076;25.626;2023-04-01T06:27:51;12.50;;;4.73;;
11604;SDS011;5858;43.076;25.626;2023-04-01T06:30:33;10.03;;;5.30;;
11604;SDS011;5858;43.076;25.626;2023-04-01T06:36:14;20.30;;;8.20;;
11604;SDS011;5858;43.076;25.626;2023-04-01T06:38:56;16.23;;;6.40;;
11604;SDS011;5858;43.076;25.626;2023-04-01T06:41:34;16.07;;;6.83;;
11604;SDS011;5858;43.076;25.626;2023-04-01T06:44:14;7.87;;;4.60;;
11604;SDS011;5858;43.076;25.626;2023-04-01T06:46:51;13.93;;;7.70;;
11604;SDS011;5858;43.076;25.626;2023-04-01T06:49:29;11.40;;;7.13;;
11604;SDS011;5858;43.076;25.626;2023-04-01T06:52:10;16.03;;;8.37;;
11604;SDS011;5858;43.076;25.626;2023-04-01T06:54:44;31.53;;;14.57;;
11604;SDS011;5858;43.076;25.626;2023-04-01T06:57:19;15.70;;;8.60;;
11604;SDS011;5858;43.076;25.626;2023-04-01T06:59:51;13.40;;;8.23;;
11604;SDS011;5858;43.076;25.626;2023-04-01T07:02:25;14.07;;;8.30;;
11604;SDS011;5858;43.076;25.626;2023-04-01T07:04:58;13.13;;;7.70;;
11604;SDS011;5858;43.076;25.626;2023-04-01T07:07:30;11.13;;;5.90;;
11604;SDS011;5858;43.076;25.626;2023-04-01T07:10:05;13.60;;;6.50;;
11604;SDS011;5858;43.076;25.626;2023-04-01T07:12:40;12.83;;;7.00;;
11604;SDS011;5858;43.076;25.626;2023-04-01T07:15:15;15.90;;;7.70;;
11604;SDS011;5858;43.076;25.626;2023-04-01T07:17:46;17.23;;;8.83;;
11604;SDS011;5858;43.076;25.626;2023-04-01T07:20:20;19.47;;;8.23;;
11604;SDS011;5858;43.076;25.626;2023-04-01T07:22:52;22.03;;;9.27;;
11604;SDS011;5858;43.076;25.626;2023-04-01T07:25:24;25.37;;;9.50;;
11604;SDS011;5858;43.076;25.626;2023-04-01T07:27:54;16.80;;;8.87;;
11604;SDS011;5858;43.076;25.626;2023-04-01T07:30:27;14.37;;;6.43;;
11604;SDS011;5858;43.076;25.626;2023-04-01T07:33:05;17.42;;;5.88;;
11604;SDS011;5858;43.076;25.626;2023-04-01T07:35:41;14.52;;;5.43;;
11604;SDS011;5858;43.076;25.626;2023-04-01T07:38:16;15.00;;;7.30;;
11604;SDS011;5858;43.076;25.626;2023-04-01T07:40:55;7.17;;;5.10;;
11604;SDS011;5858;43.076;25.626;2023-04-01T07:43:45;8.83;;;4.93;;
11604;SDS011;5858;43.076;25.626;2023-04-01T07:46:24;10.23;;;5.47;;
11604;SDS011;5858;43.076;25.626;2023-04-01T07:49:07;9.60;;;6.57;;
11604;SDS011;5858;43.076;25.626;2023-04-01T07:51:41;6.82;;;3.70;;
11604;SDS011;5858;43.076;25.626;2023-04-01T07:54:16;6.47;;;4.10;;
11604;SDS011;5858;43.076;25.626;2023-04-01T07:56:51;5.88;;;3.55;;
11604;SDS011;5858;43.076;25.626;2023-04-01T07:59:26;10.38;;;3.78;;
11604;SDS011;5858;43.076;25.626;2023-04-01T08:02:06;4.15;;;3.38;;
11604;SDS011;5858;43.076;25.626;2023-04-01T08:04:48;13.75;;;6.90;;
11604;SDS011;5858;43.076;25.626;2023-04-01T08:07:23;6.38;;;4.03;;
11604;SDS011;5858;43.076;25.626;2023-04-01T08:09:53;7.00;;;3.55;;
11604;SDS011;5858;43.076;25.626;2023-04-01T08:12:31;7.82;;;3.90;;
11604;SDS011;5858;43.076;25.626;2023-04-01T08:15:08;6.25;;;3.00;;
11604;SDS011;5858;43.076;25.626;2023-04-01T08:17:47;8.48;;;4.25;;
11604;SDS011;5858;43.076;25.626;2023-04-01T08:20:25;10.20;;;6.13;;
11604;SDS011;5858;43.076;25.626;2023-04-01T08:22:59;8.57;;;4.95;;
11604;SDS011;5858;43.076;25.626;2023-04-01T08:25:30;7.25;;;4.57;;
11604;SDS011;5858;43.076;25.626;2023-04-01T08:28:03;8.45;;;3.47;;
11604;SDS011;5858;43.076;25.626;2023-04-01T08:30:41;5.97;;;3.33;;
11604;SDS011;5858;43.076;25.626;2023-04-01T08:33:13;7.13;;;3.03;;
11604;SDS011;5858;43.076;25.626;2023-04-01T08:35:46;4.28;;;2.22;;
11604;SDS011;5858;43.076;25.626;2023-04-01T08:38:18;3.90;;;2.30;;
11604;SDS011;5858;43.076;25.626;2023-04-01T08:40:58;6.95;;;2.88;;
11604;SDS011;5858;43.076;25.626;2023-04-01T08:43:36;5.53;;;2.50;;
11604;SDS011;5858;43.076;25.626;2023-04-01T08:46:34;7.07;;;2.67;;
11604;SDS011;5858;43.076;25.626;2023-04-01T08:49:31;5.63;;;2.40;;
11604;SDS011;5858;43.076;25.626;2023-04-01T08:52:31;3.38;;;2.03;;
11604;SDS011;5858;43.076;25.626;2023-04-01T08:55:12;3.90;;;2.83;;
11604;SDS011;5858;43.076;25.626;2023-04-01T09:01:17;7.13;;;2.85;;
11604;SDS011;5858;43.076;25.626;2023-04-01T09:03:56;5.88;;;2.75;;
11604;SDS011;5858;43.076;25.626;2023-04-01T09:06:33;4.85;;;2.90;;
11604;SDS011;5858;43.076;25.626;2023-04-01T09:09:10;4.65;;;2.70;;
11604;SDS011;5858;43.076;25.626;2023-04-01T09:12:22;11.75;;;3.28;;
11604;SDS011;5858;43.076;25.626;2023-04-01T09:15:34;2.63;;;2.20;;
11604;SDS011;5858;43.076;25.626;2023-04-01T09:18:30;5.05;;;2.95;;
11604;SDS011;5858;43.076;25.626;2023-04-01T09:27:09;3.90;;;1.70;;
11604;SDS011;5858;43.076;25.626;2023-04-01T09:29:49;3.20;;;1.60;;
11604;SDS011;5858;43.076;25.626;2023-04-01T09:32:48;5.25;;;2.28;;
11604;SDS011;5858;43.076;25.626;2023-04-01T09:35:36;6.03;;;1.95;;
11604;SDS011;5858;43.076;25.626;2023-04-01T09:38:19;5.70;;;2.20;;
11604;SDS011;5858;43.076;25.626;2023-04-01T09:40:51;4.18;;;1.70;;
11604;SDS011;5858;43.076;25.626;2023-04-01T09:43:26;3.83;;;2.10;;
11604;SDS011;5858;43.076;25.626;2023-04-01T09:45:58;5.90;;;2.53;;
11604;SDS011;5858;43.076;25.626;2023-04-01T09:49:06;4.75;;;2.10;;
11604;SDS011;5858;43.076;25.626;2023-04-01T09:52:13;8.50;;;4.22;;
11604;SDS011;5858;43.076;25.626;2023-04-01T09:55:05;4.20;;;2.28;;
11604;SDS011;5858;43.076;25.626;2023-04-01T09:57:56;3.75;;;2.22;;
11604;SDS011;5858;43.076;25.626;2023-04-01T10:01:04;2.22;;;1.48;;
11604;SDS011;5858;43.076;25.626;2023-04-01T10:07:17;3.05;;;1.58;;
11604;SDS011;5858;43.076;25.626;2023-04-01T10:13:39;2.83;;;1.58;;
11604;SDS011;5858;43.076;25.626;2023-04-01T10:19:53;2.83;;;1.67;;
11604;SDS011;5858;43.076;25.626;2023-04-01T10:34:56;4.47;;;1.90;;
11604;SDS011;5858;43.076;25.626;2023-04-01T10:41:13;3.63;;;2.05;;
11604;SDS011;5858;43.076;25.626;2023-04-01T10:44:11;4.97;;;1.67;;
11604;SDS011;5858;43.076;25.626;2023-04-01T10:47:26;4.10;;;2.08;;
11604;SDS011;5858;43.076;25.626;2023-04-01T10:50:34;4.63;;;1.75;;
11604;SDS011;5858;43.076;25.626;2023-04-01T10:56:42;3.85;;;1.90;;
11604;SDS011;5858;43.076;25.626;2023-04-01T11:08:38;3.28;;;1.85;;
11604;SDS011;5858;43.076;25.626;2023-04-01T11:14:56;5.65;;;2.00;;
11604;SDS011;5858;43.076;25.626;2023-04-01T11:17:52;4.25;;;1.75;;
11604;SDS011;5858;43.076;25.626;2023-04-01T11:21:07;5.45;;;1.98;;
11604;SDS011;5858;43.076;25.626;2023-04-01T11:27:01;3.75;;;1.70;;
11604;SDS011;5858;43.076;25.626;2023-04-01T11:29:48;5.97;;;2.22;;
11604;SDS011;5858;43.076;25.626;2023-04-01T11:32:33;3.35;;;1.70;;
11604;SDS011;5858;43.076;25.626;2023-04-01T11:35:30;5.78;;;1.77;;
11604;SDS011;5858;43.076;25.626;2023-04-01T11:38:20;7.05;;;1.65;;
11604;SDS011;5858;43.076;25.626;2023-04-01T11:40:59;3.85;;;1.73;;
11604;SDS011;5858;43.076;25.626;2023-04-01T11:43:37;3.65;;;1.58;;
11604;SDS011;5858;43.076;25.626;2023-04-01T11:46:15;8.82;;;1.70;;
11604;SDS011;5858;43.076;25.626;2023-04-01T11:48:58;4.15;;;1.73;;
11604;SDS011;5858;43.076;25.626;2023-04-01T11:51:38;9.52;;;2.30;;
11604;SDS011;5858;43.076;25.626;2023-04-01T11:57:29;3.92;;;1.88;;
11604;SDS011;5858;43.076;25.626;2023-04-01T12:00:23;6.18;;;2.03;;
11604;SDS011;5858;43.076;25.626;2023-04-01T12:03:09;3.83;;;1.83;;
11604;SDS011;5858;43.076;25.626;2023-04-01T12:05:45;9.07;;;2.20;;
11604;SDS011;5858;43.076;25.626;2023-04-01T12:08:23;4.30;;;2.00;;
11604;SDS011;5858;43.076;25.626;2023-04-01T12:11:05;4.28;;;1.83;;
11604;SDS011;5858;43.076;25.626;2023-04-01T12:19:48;5.97;;;3.08;;
11604;SDS011;5858;43.076;25.626;2023-04-01T12:22:30;6.10;;;2.10;;
11604;SDS011;5858;43.076;25.626;2023-04-01T12:25:21;4.97;;;2.55;;
11604;SDS011;5858;43.076;25.626;2023-04-01T12:28:03;5.80;;;2.05;;
11604;SDS011;5858;43.076;25.626;2023-04-01T12:30:42;4.13;;;2.10;;
11604;SDS011;5858;43.076;25.626;2023-04-01T12:33:37;5.60;;;2.40;;
11604;SDS011;5858;43.076;25.626;2023-04-01T12:36:20;5.85;;;1.75;;
11604;SDS011;5858;43.076;25.626;2023-04-01T12:39:06;4.75;;;2.00;;
11604;SDS011;5858;43.076;25.626;2023-04-01T12:41:49;2.58;;;2.10;;
11604;SDS011;5858;43.076;25.626;2023-04-01T12:44:29;5.03;;;2.70;;
11604;SDS011;5858;43.076;25.626;2023-04-01T12:47:18;7.70;;;2.35;;
11604;SDS011;5858;43.076;25.626;2023-04-01T12:52:54;4.78;;;2.17;;
11604;SDS011;5858;43.076;25.626;2023-04-01T12:55:37;8.18;;;2.42;;
11604;SDS011;5858;43.076;25.626;2023-04-01T13:10:13;10.88;;;2.85;;
11604;SDS011;5858;43.076;25.626;2023-04-01T13:12:56;6.97;;;2.80;;
11604;SDS011;5858;43.076;25.626;2023-04-01T13:15:31;5.43;;;2.13;;
11604;SDS011;5858;43.076;25.626;2023-04-01T13:18:06;8.07;;;2.50;;
11604;SDS011;5858;43.076;25.626;2023-04-01T13:20:49;8.23;;;3.10;;
11604;SDS011;5858;43.076;25.626;2023-04-01T13:23:32;6.72;;;2.53;;
11604;SDS011;5858;43.076;25.626;2023-04-01T13:26:08;5.80;;;2.30;;
11604;SDS011;5858;43.076;25.626;2023-04-01T13:28:46;8.35;;;3.00;;
11604;SDS011;5858;43.076;25.626;2023-04-01T13:31:24;7.18;;;2.80;;
11604;SDS011;5858;43.076;25.626;2023-04-01T13:34:00;7.93;;;2.92;;
11604;SDS011;5858;43.076;25.626;2023-04-01T13:36:41;7.45;;;3.05;;
11604;SDS011;5858;43.076;25.626;2023-04-01T13:39:26;7.32;;;2.55;;
11604;SDS011;5858;43.076;25.626;2023-04-01T13:42:12;3.75;;;2.25;;
11604;SDS011;5858;43.076;25.626;2023-04-01T13:44:44;3.33;;;2.00;;
11604;SDS011;5858;43.076;25.626;2023-04-01T13:50:25;3.67;;;2.13;;
11604;SDS011;5858;43.076;25.626;2023-04-01T13:53:20;4.93;;;1.95;;
11604;SDS011;5858;43.076;25.626;2023-04-01T13:56:06;2.72;;;1.65;;
11604;SDS011;5858;43.076;25.626;2023-04-01T14:01:41;2.65;;;1.90;;
11604;SDS011;5858;43.076;25.626;2023-04-01T14:04:23;5.10;;;2.25;;
11604;SDS011;5858;43.076;25.626;2023-04-01T14:07:18;5.97;;;2.25;;
11604;SDS011;5858;43.076;25.626;2023-04-01T14:10:12;5.57;;;2.20;;
11604;SDS011;5858;43.076;25.626;2023-04-01T14:12:49;5.20;;;1.83;;
11604;SDS011;5858;43.076;25.626;2023-04-01T14:15:39;5.35;;;2.55;;
11604;SDS011;5858;43.076;25.626;2023-04-01T14:18:18;4.28;;;2.38;;
11604;SDS011;5858;43.076;25.626;2023-04-01T14:21:17;4.27;;;2.77;;
11604;SDS011;5858;43.076;25.626;2023-04-01T14:30:08;5.70;;;2.93;;
11604;SDS011;5858;43.076;25.626;2023-04-01T14:32:50;9.80;;;3.70;;
11604;SDS011;5858;43.076;25.626;2023-04-01T14:35:27;8.40;;;3.73;;
11604;SDS011;5858;43.076;25.626;2023-04-01T14:41:00;8.27;;;3.70;;
11604;SDS011;5858;43.076;25.626;2023-04-01T14:49:51;7.37;;;3.10;;
11604;SDS011;5858;43.076;25.626;2023-04-01T14:52:23;7.23;;;3.30;;
11604;SDS011;5858;43.076;25.626;2023-04-01T14:54:54;6.10;;;2.77;;
11604;SDS011;5858;43.076;25.626;2023-04-01T14:57:24;4.60;;;2.20;;
11604;SDS011;5858;43.076;25.626;2023-04-01T14:59:54;5.17;;;3.50;;
11604;SDS011;5858;43.076;25.626;2023-04-01T15:02:33;5.70;;;4.13;;
11604;SDS011;5858;43.076;25.626;2023-04-01T15:05:23;10.00;;;4.70;;
11604;SDS011;5858;43.076;25.626;2023-04-01T15:08:03;6.00;;;4.47;;
11604;SDS011;5858;43.076;25.626;2023-04-01T15:16:45;6.50;;;4.03;;
11604;SDS011;5858;43.076;25.626;2023-04-01T15:19:23;6.27;;;3.90;;
11604;SDS011;5858;43.076;25.626;2023-04-01T15:22:03;5.37;;;3.10;;
11604;SDS011;5858;43.076;25.626;2023-04-01T15:25:05;4.33;;;3.23;;
11604;SDS011;5858;43.076;25.626;2023-04-01T15:27:48;3.47;;;2.70;;
11604;SDS011;5858;43.076;25.626;2023-04-01T15:30:26;6.53;;;2.83;;
11604;SDS011;5858;43.076;25.626;2023-04-01T15:33:01;7.33;;;2.90;;
11604;SDS011;5858;43.076;25.626;2023-04-01T15:35:43;5.40;;;2.97;;
11604;SDS011;5858;43.076;25.626;2023-04-01T15:38:20;4.83;;;2.80;;
11604;SDS011;5858;43.076;25.626;2023-04-01T15:41:00;5.00;;;2.83;;
11604;SDS011;5858;43.076;25.626;2023-04-01T15:43:37;2.87;;;2.50;;
11604;SDS011;5858;43.076;25.626;2023-04-01T15:46:11;4.63;;;2.87;;
11604;SDS011;5858;43.076;25.626;2023-04-01T15:48:57;6.50;;;2.60;;
11604;SDS011;5858;43.076;25.626;2023-04-01T15:51:45;4.23;;;2.57;;
11604;SDS011;5858;43.076;25.626;2023-04-01T15:54:46;5.93;;;2.83;;
11604;SDS011;5858;43.076;25.626;2023-04-01T15:57:21;4.53;;;2.83;;
11604;SDS011;5858;43.076;25.626;2023-04-01T16:02:54;6.03;;;3.43;;
11604;SDS011;5858;43.076;25.626;2023-04-01T16:05:42;6.80;;;3.83;;
11604;SDS011;5858;43.076;25.626;2023-04-01T16:08:37;5.90;;;2.70;;
11604;SDS011;5858;43.076;25.626;2023-04-01T16:11:19;5.53;;;3.00;;
11604;SDS011;5858;43.076;25.626;2023-04-01T16:13:55;5.20;;;3.67;;
11604;SDS011;5858;43.076;25.626;2023-04-01T16:16:38;5.37;;;3.50;;
11604;SDS011;5858;43.076;25.626;2023-04-01T16:19:20;5.10;;;2.90;;
11604;SDS011;5858;43.076;25.626;2023-04-01T16:21:59;7.10;;;3.77;;
11604;SDS011;5858;43.076;25.626;2023-04-01T16:24:34;6.60;;;3.80;;
11604;SDS011;5858;43.076;25.626;2023-04-01T16:27:08;5.33;;;3.77;;
11604;SDS011;5858;43.076;25.626;2023-04-01T16:29:43;5.33;;;4.47;;
11604;SDS011;5858;43.076;25.626;2023-04-01T16:32:27;5.80;;;3.67;;
11604;SDS011;5858;43.076;25.626;2023-04-01T16:35:20;2.83;;;2.53;;
11604;SDS011;5858;43.076;25.626;2023-04-01T16:37:58;5.13;;;3.00;;
11604;SDS011;5858;43.076;25.626;2023-04-01T16:40:36;3.90;;;2.97;;
11604;SDS011;5858;43.076;25.626;2023-04-01T16:43:11;4.80;;;2.53;;
11604;SDS011;5858;43.076;25.626;2023-04-01T16:45:45;8.20;;;5.17;;
11604;SDS011;5858;43.076;25.626;2023-04-01T16:48:20;6.00;;;4.03;;
11604;SDS011;5858;43.076;25.626;2023-04-01T16:50:53;6.30;;;4.17;;
11604;SDS011;5858;43.076;25.626;2023-04-01T16:53:30;6.03;;;4.40;;
11604;SDS011;5858;43.076;25.626;2023-04-01T16:56:07;4.87;;;3.80;;
11604;SDS011;5858;43.076;25.626;2023-04-01T16:58:40;3.40;;;2.80;;
11604;SDS011;5858;43.076;25.626;2023-04-01T17:01:16;3.17;;;2.40;;
11604;SDS011;5858;43.076;25.626;2023-04-01T17:03:51;8.90;;;4.33;;
11604;SDS011;5858;43.076;25.626;2023-04-01T17:06:26;11.93;;;4.67;;
11604;SDS011;5858;43.076;25.626;2023-04-01T17:09:01;6.27;;;4.37;;
11604;SDS011;5858;43.076;25.626;2023-04-01T17:11:38;5.60;;;3.83;;
11604;SDS011;5858;43.076;25.626;2023-04-01T17:14:14;4.30;;;3.70;;
11604;SDS011;5858;43.076;25.626;2023-04-01T17:16:54;6.40;;;4.50;;
11604;SDS011;5858;43.076;25.626;2023-04-01T17:19:46;5.53;;;3.17;;
11604;SDS011;5858;43.076;25.626;2023-04-01T17:22:27;8.27;;;7.30;;
11604;SDS011;5858;43.076;25.626;2023-04-01T17:25:09;8.07;;;4.20;;
11604;SDS011;5858;43.076;25.626;2023-04-01T17:27:57;4.80;;;3.67;;
11604;SDS011;5858;43.076;25.626;2023-04-01T17:30:34;4.87;;;3.73;;
11604;SDS011;5858;43.076;25.626;2023-04-01T17:33:11;6.53;;;3.67;;
11604;SDS011;5858;43.076;25.626;2023-04-01T17:35:53;6.00;;;3.70;;
11604;SDS011;5858;43.076;25.626;2023-04-01T17:38:32;4.53;;;3.20;;
11604;SDS011;5858;43.076;25.626;2023-04-01T17:41:14;4.20;;;3.63;;